createdAt,value
2022-12-03T00:02:16.144Z,97374.63
2022-12-03T00:04:42.688Z,97379.66
2022-12-03T00:07:09.154Z,97378.47
2022-12-03T00:09:35.633Z,97378.88
2022-12-03T00:12:02.060Z,97375.16
2022-12-03T00:14:28.547Z,97374.81
2022-12-03T00:16:55.004Z,97380.38
2022-12-03T00:19:21.491Z,97375.28
2022-12-03T00:21:47.933Z,97377.78
2022-12-03T00:24:14.381Z,97374.75
2022-12-03T00:26:40.830Z,97371.53
2022-12-03T00:29:07.356Z,97376.50
2022-12-03T00:31:33.978Z,97374.88
2022-12-03T00:34:00.608Z,97374.28
2022-12-03T00:36:27.051Z,97372.81
2022-12-03T00:38:53.785Z,97373.41
2022-12-03T00:41:20.270Z,97366.69
2022-12-03T00:43:46.767Z,97378.16
2022-12-03T00:46:16.839Z,97363.53
2022-12-03T00:48:46.203Z,97365.66
2022-12-03T00:51:13.096Z,97365.66
2022-12-03T00:53:39.983Z,97369.78
2022-12-03T00:56:06.901Z,97373.72
2022-12-03T00:58:33.326Z,97366.91
2022-12-03T01:00:59.763Z,97362.16
2022-12-03T01:03:26.347Z,97359.47
2022-12-03T01:05:52.807Z,97362.53
2022-12-03T01:08:19.429Z,97354.75
2022-12-03T01:10:45.865Z,97357.66
2022-12-03T01:13:12.356Z,97359.28
2022-12-03T01:15:38.931Z,97355.88
2022-12-03T01:18:05.405Z,97360.19
2022-12-03T01:20:32.047Z,97363.41
2022-12-03T01:22:58.537Z,97371.78
2022-12-03T01:25:25.039Z,97367.72
2022-12-03T01:27:51.471Z,97368.94
2022-12-03T01:30:18.086Z,97362.16
2022-12-03T01:32:44.547Z,97365.28
2022-12-03T01:35:11.037Z,97366.41
2022-12-03T01:37:37.579Z,97365.00
2022-12-03T01:40:05.162Z,97369.53
2022-12-03T01:42:35.513Z,97367.41
2022-12-03T01:45:03.672Z,97366.22
2022-12-03T01:47:34.191Z,97370.53
2022-12-03T01:50:19.391Z,97373.84
2022-12-03T01:52:46.219Z,97368.69
2022-12-03T01:55:19.193Z,97367.41
2022-12-03T01:57:52.291Z,97368.88
2022-12-03T02:00:22.148Z,97375.00
2022-12-03T02:02:52.811Z,97376.81
2022-12-03T02:05:23.325Z,97377.47
2022-12-03T02:07:49.858Z,97375.41
2022-12-03T02:10:18.791Z,97370.16
2022-12-03T02:13:07.445Z,97370.06
2022-12-03T02:15:35.148Z,97370.09
2022-12-03T02:18:02.125Z,97367.78
2022-12-03T02:20:32.197Z,97372.94
2022-12-03T02:23:41.930Z,97373.13
2022-12-03T02:26:08.504Z,97377.34
2022-12-03T02:28:35.025Z,97377.78
2022-12-03T02:31:01.567Z,97369.91
2022-12-03T02:33:28.078Z,97366.63
2022-12-03T02:35:57.954Z,97368.50
2022-12-03T02:38:29.289Z,97367.00
2022-12-03T02:41:00.543Z,97375.59
2022-12-03T02:43:27.244Z,97368.50
2022-12-03T02:45:56.446Z,97364.06
2022-12-03T02:48:35.735Z,97356.88
2022-12-03T02:51:05.783Z,97353.41
2022-12-03T02:53:44.977Z,97368.63
2022-12-03T02:56:15.579Z,97369.88
2022-12-03T02:58:44.739Z,97367.03
2022-12-03T03:01:11.503Z,97369.84
2022-12-03T03:03:39.002Z,97365.97
2022-12-03T03:06:08.144Z,97366.13
2022-12-03T03:08:36.541Z,97366.34
2022-12-03T03:11:03.117Z,97365.72
2022-12-03T03:13:32.352Z,97367.84
2022-12-03T03:15:59.355Z,97369.91
2022-12-03T03:18:25.931Z,97371.16
2022-12-03T03:20:53.494Z,97362.53
2022-12-03T03:23:22.431Z,97372.94
2022-12-03T03:25:57.879Z,97373.53
2022-12-03T03:28:25.583Z,97369.47
2022-12-03T03:30:52.689Z,97369.78
2022-12-03T03:33:19.377Z,97370.97
2022-12-03T03:35:48.158Z,97371.59
2022-12-03T03:38:18.182Z,97362.22
2022-12-03T03:40:44.824Z,97365.75
2022-12-03T03:43:12.704Z,97358.72
2022-12-03T03:45:39.249Z,97360.44
2022-12-03T03:48:07.068Z,97364.75
2022-12-03T03:50:34.602Z,97369.47
2022-12-03T03:53:02.475Z,97369.28
2022-12-03T03:55:30.344Z,97367.19
2022-12-03T03:57:56.980Z,97359.22
2022-12-03T04:00:23.727Z,97356.31
2022-12-03T04:02:50.161Z,97353.00
2022-12-03T04:05:20.006Z,97352.63
2022-12-03T04:07:46.652Z,97357.13
2022-12-03T04:10:34.153Z,97351.25
2022-12-03T04:13:01.475Z,97351.84
2022-12-03T04:15:28.389Z,97352.50
2022-12-03T04:18:13.871Z,97350.69
2022-12-03T04:20:41.202Z,97347.78
2022-12-03T04:23:08.079Z,97353.59
2022-12-03T04:26:03.457Z,97350.47
2022-12-03T04:28:48.362Z,97347.59
2022-12-03T04:31:33.162Z,97340.44
2022-12-03T04:34:18.183Z,97346.00
2022-12-03T04:36:44.669Z,97337.53
2022-12-03T04:39:11.124Z,97344.69
2022-12-03T04:41:37.596Z,97343.44
2022-12-03T04:44:22.876Z,97338.03
2022-12-03T04:46:49.345Z,97340.69
2022-12-03T04:49:15.803Z,97337.66
2022-12-03T04:51:42.311Z,97341.97
2022-12-03T04:54:08.770Z,97341.78
2022-12-03T04:56:35.266Z,97348.94
2022-12-03T04:59:01.828Z,97349.97
2022-12-03T05:01:28.438Z,97339.13
2022-12-03T05:03:54.943Z,97340.56
2022-12-03T05:06:21.800Z,97332.00
2022-12-03T05:08:48.366Z,97329.66
2022-12-03T05:11:14.844Z,97332.88
2022-12-03T05:13:42.970Z,97338.41
2022-12-03T05:16:10.194Z,97340.69
2022-12-03T05:18:36.766Z,97338.88
2022-12-03T05:21:03.269Z,97333.91
2022-12-03T05:23:29.733Z,97344.19
2022-12-03T05:25:56.252Z,97345.00
2022-12-03T05:28:24.193Z,97339.53
2022-12-03T05:30:51.397Z,97338.53
2022-12-03T05:33:18.483Z,97332.19
2022-12-03T05:35:44.967Z,97318.22
2022-12-03T05:38:11.520Z,97315.50
2022-12-03T05:40:38.017Z,97307.94
2022-12-03T05:43:04.653Z,97306.28
2022-12-03T05:45:33.969Z,97306.75
2022-12-03T05:48:01.296Z,97313.00
2022-12-03T05:50:30.808Z,97312.59
2022-12-03T05:52:58.055Z,97317.53
2022-12-03T05:55:25.242Z,97329.66
2022-12-03T05:57:51.996Z,97321.28
2022-12-03T06:00:26.782Z,97320.81
2022-12-03T06:02:54.142Z,97323.72
2022-12-03T06:05:21.930Z,97326.63
2022-12-03T06:07:50.124Z,97332.56
2022-12-03T06:10:22.908Z,97327.06
2022-12-03T06:12:49.592Z,97326.81
2022-12-03T06:15:16.606Z,97318.53
2022-12-03T06:17:43.152Z,97316.69
2022-12-03T06:20:14.267Z,97314.41
2022-12-03T06:22:40.858Z,97330.28
2022-12-03T06:25:22.400Z,97329.28
2022-12-03T06:27:48.915Z,97341.66
2022-12-03T06:30:15.569Z,97334.75
2022-12-03T06:32:42.052Z,97340.06
2022-12-03T06:35:08.910Z,97346.03
2022-12-03T06:37:35.431Z,97345.28
2022-12-03T06:40:01.963Z,97350.41
2022-12-03T06:42:28.446Z,97352.00
2022-12-03T06:44:55.349Z,97351.59
2022-12-03T06:47:21.971Z,97356.94
2022-12-03T06:49:48.423Z,97353.66
2022-12-03T06:52:14.915Z,97346.94
2022-12-03T06:54:41.355Z,97349.34
2022-12-03T06:57:07.800Z,97354.69
2022-12-03T06:59:36.359Z,97349.91
2022-12-03T07:02:03.685Z,97354.41
2022-12-03T07:04:30.243Z,97356.25
2022-12-03T07:06:56.745Z,97348.69
2022-12-03T07:09:23.253Z,97349.53
2022-12-03T07:11:49.760Z,97347.63
2022-12-03T07:14:16.249Z,97339.81
2022-12-03T07:16:43.695Z,97341.91
2022-12-03T07:19:10.849Z,97340.69
2022-12-03T07:21:37.990Z,97335.38
2022-12-03T07:24:05.546Z,97329.00
2022-12-03T07:26:32.170Z,97330.88
2022-12-03T07:28:58.887Z,97337.19
2022-12-03T07:31:25.382Z,97336.00
2022-12-03T07:33:51.976Z,97339.34
2022-12-03T07:36:18.457Z,97342.63
2022-12-03T07:38:44.937Z,97340.75
2022-12-03T07:41:11.482Z,97340.13
2022-12-03T07:43:37.980Z,97337.28
2022-12-03T07:46:04.557Z,97336.06
2022-12-03T07:48:31.066Z,97327.47
2022-12-03T07:50:58.507Z,97343.84
2022-12-03T07:53:24.949Z,97340.94
2022-12-03T07:55:51.500Z,97336.69
2022-12-03T07:58:17.988Z,97333.84
2022-12-03T08:00:44.519Z,97338.16
2022-12-03T08:03:11.133Z,97330.75
2022-12-03T08:05:37.546Z,97329.53
2022-12-03T08:08:04.206Z,97327.44
2022-12-03T08:10:30.795Z,97329.53
2022-12-03T08:12:59.420Z,97329.28
2022-12-03T08:15:31.148Z,97323.53
2022-12-03T08:18:07.873Z,97340.69
2022-12-03T08:20:39.043Z,97342.09
2022-12-03T08:23:15.357Z,97339.66
2022-12-03T08:25:42.696Z,97337.41
2022-12-03T08:28:20.196Z,97337.59
2022-12-03T08:31:03.177Z,97338.34
2022-12-03T08:33:36.673Z,97332.38
2022-12-03T08:36:21.721Z,97337.41
2022-12-03T08:38:56.161Z,97333.59
2022-12-03T08:41:42.635Z,97334.75
2022-12-03T08:44:13.804Z,97334.63
2022-12-03T08:46:40.374Z,97331.00
2022-12-03T08:49:06.794Z,97325.66
2022-12-03T08:51:33.275Z,97321.97
2022-12-03T08:54:07.726Z,97317.19
2022-12-03T08:56:36.683Z,97321.91
2022-12-03T08:59:32.050Z,97322.97
2022-12-03T09:01:59.587Z,97328.75
2022-12-03T09:04:46.071Z,97325.69
2022-12-03T09:07:12.597Z,97326.91
2022-12-03T09:09:39.112Z,97325.84
2022-12-03T09:12:05.876Z,97322.94
2022-12-03T09:14:32.374Z,97332.81
2022-12-03T09:16:58.993Z,97324.63
2022-12-03T09:19:27.559Z,97328.25
2022-12-03T09:21:54.504Z,97330.75
2022-12-03T09:24:21.178Z,97326.88
2022-12-03T09:26:47.720Z,97329.50
2022-12-03T09:29:14.323Z,97326.84
2022-12-03T09:31:41.267Z,97327.25
2022-12-03T09:34:08.685Z,97332.13
2022-12-03T09:36:35.334Z,97333.94
2022-12-03T09:39:01.924Z,97328.44
2022-12-03T09:41:28.796Z,97324.34
2022-12-03T09:44:05.293Z,97322.25
2022-12-03T09:46:35.246Z,97327.22
2022-12-03T09:49:03.589Z,97323.78
2022-12-03T09:51:33.364Z,97315.00
2022-12-03T09:54:02.932Z,97308.81
2022-12-03T09:56:29.691Z,97292.00
2022-12-03T09:58:56.219Z,97279.75
2022-12-03T10:01:25.828Z,97279.13
2022-12-03T10:03:54.364Z,97273.22
2022-12-03T10:06:23.342Z,97288.44
2022-12-03T10:08:53.399Z,97283.13
2022-12-03T10:11:23.899Z,97282.38
2022-12-03T10:13:52.508Z,97285.63
2022-12-03T10:16:20.839Z,97281.00
2022-12-03T10:18:51.412Z,97285.09
2022-12-03T10:21:19.736Z,97277.94
2022-12-03T10:23:50.834Z,97272.66
2022-12-03T10:26:38.510Z,97278.22
2022-12-03T10:29:19.386Z,97290.44
2022-12-03T10:31:54.236Z,97279.53
2022-12-03T10:34:35.444Z,97278.31
2022-12-03T10:37:10.736Z,97276.41
2022-12-03T10:40:05.200Z,97278.28
2022-12-03T10:42:33.928Z,97279.53
2022-12-03T10:45:18.174Z,97273.41
2022-12-03T10:48:03.005Z,97270.75
2022-12-03T10:50:29.807Z,97268.25
2022-12-03T10:52:56.250Z,97263.34
2022-12-03T10:55:23.104Z,97263.09
2022-12-03T10:57:49.609Z,97258.41
2022-12-03T11:00:18.934Z,97249.75
2022-12-03T11:02:53.027Z,97256.13
2022-12-03T11:05:29.150Z,97251.94
2022-12-03T11:07:56.491Z,97247.88
2022-12-03T11:10:23.604Z,97242.50
2022-12-03T11:13:27.179Z,97234.50
2022-12-03T11:15:54.197Z,97229.78
2022-12-03T11:18:35.879Z,97227.56
2022-12-03T11:21:08.659Z,97225.91
2022-12-03T11:23:44.083Z,97226.13
2022-12-03T11:26:38.135Z,97232.75
2022-12-03T11:29:13.036Z,97221.63
2022-12-03T11:31:42.878Z,97220.69
2022-12-03T11:34:31.354Z,97218.47
2022-12-03T11:37:11.754Z,97221.38
2022-12-03T11:39:50.783Z,97216.75
2022-12-03T11:42:26.557Z,97219.66
2022-12-03T11:45:05.292Z,97219.50
2022-12-03T11:47:36.953Z,97220.91
2022-12-03T11:50:19.674Z,97227.00
2022-12-03T11:52:48.692Z,97219.78
2022-12-03T11:55:31.407Z,97217.31
2022-12-03T11:58:03.654Z,97220.38
2022-12-03T12:00:30.498Z,97209.47
2022-12-03T12:02:58.609Z,97208.84
2022-12-03T12:05:29.078Z,97199.59
2022-12-03T12:07:56.625Z,97197.38
2022-12-03T12:10:48.410Z,97183.25
2022-12-03T12:13:30.156Z,97187.31
2022-12-03T12:16:02.660Z,97181.97
2022-12-03T12:18:35.987Z,97181.00
2022-12-03T12:21:43.153Z,97179.53
2022-12-03T12:24:41.236Z,97183.72
2022-12-03T12:27:24.000Z,97185.69
2022-12-03T12:29:57.003Z,97180.34
2022-12-03T12:32:33.092Z,97172.16
2022-12-03T12:35:14.731Z,97163.78
2022-12-03T12:37:59.621Z,97166.22
2022-12-03T12:40:29.314Z,97158.22
2022-12-03T12:43:29.549Z,97161.31
2022-12-03T12:46:13.606Z,97160.81
2022-12-03T12:48:45.453Z,97162.94
2022-12-03T12:51:15.391Z,97155.19
2022-12-03T12:53:42.877Z,97157.09
2022-12-03T12:56:21.620Z,97165.28
2022-12-03T12:58:48.124Z,97166.06
2022-12-03T13:01:25.058Z,97158.22
2022-12-03T13:03:52.395Z,97154.38
2022-12-03T13:06:25.417Z,97148.81
2022-12-03T13:08:53.516Z,97148.00
2022-12-03T13:11:41.292Z,97146.34
2022-12-03T13:14:24.391Z,97154.16
2022-12-03T13:16:53.451Z,97146.34
2022-12-03T13:19:25.993Z,97143.06
2022-12-03T13:21:54.911Z,97145.47
2022-12-03T13:24:43.054Z,97147.28
2022-12-03T13:27:18.282Z,97143.22
2022-12-03T13:29:46.850Z,97142.00
2022-12-03T13:32:22.217Z,97140.59
2022-12-03T13:34:51.124Z,97136.72
2022-12-03T13:37:27.256Z,97142.22
2022-12-03T13:39:57.534Z,97140.66
2022-12-03T13:42:39.188Z,97144.16
2022-12-03T13:45:35.212Z,97141.91
2022-12-03T13:48:13.524Z,97137.34
2022-12-03T13:50:42.098Z,97141.09
2022-12-03T13:53:11.630Z,97137.34
2022-12-03T13:56:00.624Z,97143.94
2022-12-03T13:58:27.109Z,97135.56
2022-12-03T14:00:53.584Z,97137.66
2022-12-03T14:03:20.132Z,97136.50
2022-12-03T14:05:46.563Z,97132.22
2022-12-03T14:08:13.042Z,97132.22
2022-12-03T14:10:39.666Z,97134.66
2022-12-03T14:13:06.093Z,97127.19
2022-12-03T14:15:32.524Z,97133.28
2022-12-03T14:17:58.990Z,97134.66
2022-12-03T14:20:25.458Z,97130.00
2022-12-03T14:22:57.639Z,97134.13
2022-12-03T14:25:25.699Z,97139.38
2022-12-03T14:27:52.148Z,97143.72
2022-12-03T14:30:18.778Z,97140.38
2022-12-03T14:32:45.247Z,97144.31
2022-12-03T14:35:11.654Z,97145.25
2022-12-03T14:37:38.153Z,97152.00
2022-12-03T14:40:07.005Z,97144.44
2022-12-03T14:42:33.478Z,97147.50
2022-12-03T14:44:59.891Z,97152.50
2022-12-03T14:47:26.331Z,97149.19
2022-12-03T14:49:53.255Z,97154.31
2022-12-03T14:52:20.121Z,97152.03
2022-12-03T14:54:46.570Z,97158.25
2022-12-03T14:57:14.707Z,97145.63
2022-12-03T14:59:42.170Z,97149.91
2022-12-03T15:02:09.416Z,97146.72
2022-12-03T15:04:36.721Z,97148.91
2022-12-03T15:07:03.559Z,97139.34
2022-12-03T15:09:30.133Z,97148.50
2022-12-03T15:11:56.661Z,97142.25
2022-12-03T15:14:23.147Z,97148.16
2022-12-03T15:16:49.685Z,97157.19
2022-12-03T15:19:16.158Z,97153.75
2022-12-03T15:21:42.693Z,97156.75
2022-12-03T15:24:10.343Z,97161.56
2022-12-03T15:26:36.836Z,97158.78
2022-12-03T15:29:03.319Z,97148.38
2022-12-03T15:31:29.886Z,97146.66
2022-12-03T15:33:56.348Z,97149.31
2022-12-03T15:36:22.819Z,97158.63
2022-12-03T15:38:49.251Z,97151.50
2022-12-03T15:41:23.204Z,97150.03
2022-12-03T15:43:51.962Z,97148.72
2022-12-03T15:46:19.466Z,97144.13
2022-12-03T15:48:46.973Z,97139.84
2022-12-03T15:51:13.878Z,97134.88
2022-12-03T15:53:40.776Z,97137.13
2022-12-03T15:56:07.489Z,97156.28
2022-12-03T15:58:34.757Z,97145.75
2022-12-03T16:01:01.457Z,97142.16
2022-12-03T16:03:28.115Z,97147.72
2022-12-03T16:05:54.842Z,97138.75
2022-12-03T16:08:21.608Z,97144.16
2022-12-03T16:10:48.107Z,97142.72
2022-12-03T16:13:14.523Z,97141.69
2022-12-03T16:15:41.039Z,97129.25
2022-12-03T16:18:07.591Z,97142.34
2022-12-03T16:20:34.107Z,97150.94
2022-12-03T16:23:00.532Z,97151.22
2022-12-03T16:25:27.208Z,97135.03
2022-12-03T16:27:53.762Z,97146.47
2022-12-03T16:30:20.437Z,97144.31
2022-12-03T16:32:46.883Z,97141.44
2022-12-03T16:35:13.306Z,97141.91
2022-12-03T16:37:39.744Z,97140.94
2022-12-03T16:40:07.184Z,97146.22
2022-12-03T16:42:33.743Z,97138.41
2022-12-03T16:45:03.024Z,97133.47
2022-12-03T16:47:33.894Z,97125.16
2022-12-03T16:50:07.462Z,97132.84
2022-12-03T16:52:34.851Z,97140.78
2022-12-03T16:55:01.612Z,97138.06
2022-12-03T16:57:33.316Z,97132.13
2022-12-03T17:00:00.718Z,97130.13
2022-12-03T17:02:27.654Z,97125.78
2022-12-03T17:04:54.516Z,97129.94
2022-12-03T17:07:20.997Z,97125.59
2022-12-03T17:09:47.524Z,97122.56
2022-12-03T17:12:14.020Z,97123.47
2022-12-03T17:14:40.502Z,97121.63
2022-12-03T17:17:07.061Z,97120.41
2022-12-03T17:19:33.564Z,97119.97
2022-12-03T17:22:00.102Z,97120.03
2022-12-03T17:24:26.590Z,97105.22
2022-12-03T17:26:53.095Z,97106.84
2022-12-03T17:29:19.563Z,97106.28
2022-12-03T17:31:46.179Z,97108.75
2022-12-03T17:34:12.640Z,97107.75
2022-12-03T17:36:39.121Z,97099.81
2022-12-03T17:39:05.628Z,97098.63
2022-12-03T17:41:32.043Z,97111.50
2022-12-03T17:43:58.500Z,97123.53
2022-12-03T17:46:25.052Z,97114.53
2022-12-03T17:48:51.634Z,97114.97
2022-12-03T17:51:20.766Z,97112.75
2022-12-03T17:53:47.251Z,97118.09
2022-12-03T17:56:13.769Z,97119.97
2022-12-03T17:58:40.256Z,97121.84
2022-12-03T18:01:08.474Z,97114.41
2022-12-03T18:03:34.938Z,97117.06
2022-12-03T18:06:01.463Z,97112.66
2022-12-03T18:08:28.208Z,97116.34
2022-12-03T18:10:54.697Z,97111.22
2022-12-03T18:13:21.359Z,97105.34
2022-12-03T18:15:47.869Z,97101.78
2022-12-03T18:18:14.316Z,97108.00
2022-12-03T18:20:40.832Z,97105.09
2022-12-03T18:23:07.340Z,97098.94
2022-12-03T18:25:33.863Z,97099.44
2022-12-03T18:28:00.393Z,97103.16
2022-12-03T18:30:26.827Z,97096.31
2022-12-03T18:32:53.308Z,97095.13
2022-12-03T18:35:20.641Z,97090.00
2022-12-03T18:37:49.888Z,97093.13
2022-12-03T18:40:22.436Z,97104.00
2022-12-03T18:42:49.095Z,97103.63
2022-12-03T18:45:15.769Z,97105.66
2022-12-03T18:47:42.912Z,97102.63
2022-12-03T18:50:10.520Z,97101.97
2022-12-03T18:52:37.293Z,97097.72
2022-12-03T18:55:04.675Z,97094.88
2022-12-03T18:57:31.137Z,97087.78
2022-12-03T18:59:57.870Z,97085.38
2022-12-03T19:03:01.898Z,97098.25
2022-12-03T19:05:11.168Z,97084.22
2022-12-03T19:07:37.871Z,97077.38
2022-12-03T19:10:05.070Z,97082.47
2022-12-03T19:12:32.906Z,97081.69
2022-12-03T19:14:59.371Z,97088.72
2022-12-03T19:17:27.088Z,97075.28
2022-12-03T19:19:54.307Z,97077.22
2022-12-03T19:22:21.229Z,97078.84
2022-12-03T19:24:47.753Z,97084.34
2022-12-03T19:27:14.859Z,97074.72
2022-12-03T19:29:41.894Z,97081.94
2022-12-03T19:32:08.871Z,97080.53
2022-12-03T19:34:35.744Z,97075.75
2022-12-03T19:37:02.163Z,97068.50
2022-12-03T19:39:28.726Z,97088.81
2022-12-03T19:41:55.148Z,97080.81
2022-12-03T19:44:21.591Z,97073.63
2022-12-03T19:46:51.051Z,97085.13
2022-12-03T19:49:20.678Z,97084.75
2022-12-03T19:51:47.668Z,97075.63
2022-12-03T19:54:14.412Z,97078.84
2022-12-03T19:56:41.007Z,97084.03
2022-12-03T19:59:07.888Z,97081.56
2022-12-03T20:01:35.579Z,97084.88
2022-12-03T20:04:03.579Z,97076.00
2022-12-03T20:06:34.920Z,97076.50
2022-12-03T20:09:05.404Z,97060.34
2022-12-03T20:11:33.305Z,97061.97
2022-12-03T20:14:03.182Z,97063.38
2022-12-03T20:16:30.235Z,97066.44
2022-12-03T20:19:05.204Z,97081.94
2022-12-03T20:21:33.833Z,97070.88
2022-12-03T20:24:00.811Z,97074.34
2022-12-03T20:26:28.276Z,97070.91
2022-12-03T20:28:55.359Z,97071.28
2022-12-03T20:31:24.291Z,97072.13
2022-12-03T20:33:54.063Z,97069.84
2022-12-03T20:36:22.692Z,97074.78
2022-12-03T20:38:54.767Z,97070.25
2022-12-03T20:41:21.476Z,97067.91
2022-12-03T20:43:48.586Z,97070.50
2022-12-03T20:46:20.953Z,97068.63
2022-12-03T20:48:47.899Z,97067.00
2022-12-03T20:51:19.888Z,97068.16
2022-12-03T20:53:46.830Z,97071.00
2022-12-03T20:56:20.178Z,97059.97
2022-12-03T20:58:50.215Z,97057.31
2022-12-03T21:01:26.302Z,97055.66
2022-12-03T21:03:55.183Z,97053.81
2022-12-03T21:06:23.013Z,97048.56
2022-12-03T21:08:51.804Z,97046.28
2022-12-03T21:11:21.075Z,97043.22
2022-12-03T21:13:47.862Z,97031.78
2022-12-03T21:16:17.443Z,97028.28
2022-12-03T21:18:44.435Z,97031.31
2022-12-03T21:21:12.880Z,97038.94
2022-12-03T21:23:39.607Z,97038.56
2022-12-03T21:26:13.025Z,97045.16
2022-12-03T21:28:41.266Z,97049.00
2022-12-03T21:31:10.720Z,97043.94
2022-12-03T21:33:37.820Z,97034.53
2022-12-03T21:36:05.523Z,97037.41
2022-12-03T21:38:33.844Z,97040.75
2022-12-03T21:41:00.982Z,97039.34
2022-12-03T21:43:27.951Z,97034.31
2022-12-03T21:45:55.124Z,97029.06
2022-12-03T21:48:22.157Z,97041.16
2022-12-03T21:51:06.376Z,97033.00
2022-12-03T21:53:37.928Z,97030.09
2022-12-03T21:56:11.365Z,97035.00
2022-12-03T21:58:38.563Z,97031.50
2022-12-03T22:01:18.951Z,97034.63
2022-12-03T22:03:45.913Z,97035.16
2022-12-03T22:06:13.571Z,97039.16
2022-12-03T22:08:40.127Z,97027.38
2022-12-03T22:11:12.503Z,97015.59
2022-12-03T22:13:40.040Z,97014.91
2022-12-03T22:16:08.869Z,97019.41
2022-12-03T22:18:35.540Z,97020.63
2022-12-03T22:21:05.877Z,97028.97
2022-12-03T22:23:32.839Z,97019.69
2022-12-03T22:26:01.211Z,97027.59
2022-12-03T22:28:27.895Z,97023.03
2022-12-03T22:30:54.691Z,97022.66
2022-12-03T22:33:21.524Z,97015.25
2022-12-03T22:35:58.872Z,97013.16
2022-12-03T22:38:26.304Z,97001.03
2022-12-03T22:40:52.862Z,97003.34
2022-12-03T22:43:19.708Z,97003.78
2022-12-03T22:45:46.296Z,97002.22
2022-12-03T22:48:12.882Z,97010.91
2022-12-03T22:50:46.476Z,97011.47
2022-12-03T22:53:13.906Z,97007.69
2022-12-03T22:55:41.583Z,97003.16
2022-12-03T22:58:09.465Z,96990.19
2022-12-03T23:00:39.912Z,96975.66
2022-12-03T23:03:07.769Z,96978.69
2022-12-03T23:05:38.420Z,96974.22
2022-12-03T23:08:10.571Z,96978.94
2022-12-03T23:10:39.533Z,96976.78
2022-12-03T23:13:06.374Z,96977.81
2022-12-03T23:15:33.057Z,96984.75
2022-12-03T23:17:59.736Z,96983.19
2022-12-03T23:20:26.996Z,96989.16
2022-12-03T23:22:53.970Z,96983.66
2022-12-03T23:25:21.249Z,96991.25
2022-12-03T23:27:48.140Z,96987.16
2022-12-03T23:30:15.916Z,96991.06
2022-12-03T23:32:44.298Z,96990.19
2022-12-03T23:35:12.380Z,96993.31
2022-12-03T23:37:42.148Z,97002.56
2022-12-03T23:40:09.003Z,97006.06
2022-12-03T23:42:35.512Z,97009.75
2022-12-03T23:45:01.987Z,97006.84
2022-12-03T23:47:28.492Z,96996.22
2022-12-03T23:49:55.333Z,96981.44
2022-12-03T23:52:22.063Z,96969.34
2022-12-03T23:54:48.507Z,96972.63
2022-12-03T23:57:16.119Z,96981.06
2022-12-03T23:59:43.239Z,96973.28
